sensor_id;sensor_type;location;lat;lon;timestamp;temperature;humidity
21047;DHT22;10682;50.874;3.656;2022-10-22T00:00:12;15.50;99.90
21047;DHT22;10682;50.874;3.656;2022-10-22T00:02:41;15.60;99.90
21047;DHT22;10682;50.874;3.656;2022-10-22T00:05:09;15.60;99.90
21047;DHT22;10682;50.874;3.656;2022-10-22T00:07:36;15.60;99.90
21047;DHT22;10682;50.874;3.656;2022-10-22T00:10:05;15.60;99.90
21047;DHT22;10682;50.874;3.656;2022-10-22T00:12:33;15.60;99.90
21047;DHT22;10682;50.874;3.656;2022-10-22T00:15:00;15.60;99.90
21047;DHT22;10682;50.874;3.656;2022-10-22T00:17:28;15.60;99.90
21047;DHT22;10682;50.874;3.656;2022-10-22T00:19:54;15.60;99.90
21047;DHT22;10682;50.874;3.656;2022-10-22T00:22:21;15.60;99.90
21047;DHT22;10682;50.874;3.656;2022-10-22T00:24:48;15.60;99.90
21047;DHT22;10682;50.874;3.656;2022-10-22T00:27:15;15.60;99.90
21047;DHT22;10682;50.874;3.656;2022-10-22T00:29:42;15.60;99.90
21047;DHT22;10682;50.874;3.656;2022-10-22T00:32:09;15.60;99.90
21047;DHT22;10682;50.874;3.656;2022-10-22T00:34:36;15.70;99.90
21047;DHT22;10682;50.874;3.656;2022-10-22T00:37:03;15.70;99.90
21047;DHT22;10682;50.874;3.656;2022-10-22T00:39:30;15.80;99.90
21047;DHT22;10682;50.874;3.656;2022-10-22T00:41:58;15.80;99.90
21047;DHT22;10682;50.874;3.656;2022-10-22T00:47:33;15.80;99.90
21047;DHT22;10682;50.874;3.656;2022-10-22T00:50:03;15.80;99.90
21047;DHT22;10682;50.874;3.656;2022-10-22T00:52:32;15.80;99.90
21047;DHT22;10682;50.874;3.656;2022-10-22T00:54:59;15.80;99.90
21047;DHT22;10682;50.874;3.656;2022-10-22T00:57:27;15.80;99.90
21047;DHT22;10682;50.874;3.656;2022-10-22T00:59:55;15.80;99.90
21047;DHT22;10682;50.874;3.656;2022-10-22T01:02:23;15.80;99.90
21047;DHT22;10682;50.874;3.656;2022-10-22T01:04:50;15.70;99.90
21047;DHT22;10682;50.874;3.656;2022-10-22T01:07:19;15.70;99.90
21047;DHT22;10682;50.874;3.656;2022-10-22T01:10:15;15.70;99.90
21047;DHT22;10682;50.874;3.656;2022-10-22T01:12:45;15.70;99.90
21047;DHT22;10682;50.874;3.656;2022-10-22T01:18:39;15.70;99.90
21047;DHT22;10682;50.874;3.656;2022-10-22T01:29:47;15.70;99.90
21047;DHT22;10682;50.874;3.656;2022-10-22T01:32:19;15.60;99.90
21047;DHT22;10682;50.874;3.656;2022-10-22T01:34:54;15.60;99.90
21047;DHT22;10682;50.874;3.656;2022-10-22T01:37:28;15.60;99.90
21047;DHT22;10682;50.874;3.656;2022-10-22T01:39:58;15.60;99.90
21047;DHT22;10682;50.874;3.656;2022-10-22T01:42:26;15.60;99.90
21047;DHT22;10682;50.874;3.656;2022-10-22T01:44:53;15.60;99.90
21047;DHT22;10682;50.874;3.656;2022-10-22T01:53:23;15.50;99.90
21047;DHT22;10682;50.874;3.656;2022-10-22T02:01:58;15.50;99.90
21047;DHT22;10682;50.874;3.656;2022-10-22T02:07:17;15.50;99.90
21047;DHT22;10682;50.874;3.656;2022-10-22T02:09:46;15.50;99.90
21047;DHT22;10682;50.874;3.656;2022-10-22T02:12:16;15.40;99.90
21047;DHT22;10682;50.874;3.656;2022-10-22T02:14:46;15.50;99.90
21047;DHT22;10682;50.874;3.656;2022-10-22T02:17:18;15.50;99.90
21047;DHT22;10682;50.874;3.656;2022-10-22T02:19:53;15.50;99.90
21047;DHT22;10682;50.874;3.656;2022-10-22T02:22:23;15.50;99.90
21047;DHT22;10682;50.874;3.656;2022-10-22T02:24:51;15.40;99.90
21047;DHT22;10682;50.874;3.656;2022-10-22T02:27:31;15.40;99.90
21047;DHT22;10682;50.874;3.656;2022-10-22T02:35:26;15.30;99.90
21047;DHT22;10682;50.874;3.656;2022-10-22T02:37:56;15.30;99.90
21047;DHT22;10682;50.874;3.656;2022-10-22T02:40:24;15.30;99.90
21047;DHT22;10682;50.874;3.656;2022-10-22T02:42:52;15.20;99.90
21047;DHT22;10682;50.874;3.656;2022-10-22T02:45:19;15.20;99.90
21047;DHT22;10682;50.874;3.656;2022-10-22T02:47:46;15.20;99.90
21047;DHT22;10682;50.874;3.656;2022-10-22T02:50:13;15.20;99.90
21047;DHT22;10682;50.874;3.656;2022-10-22T02:52:40;15.30;99.90
21047;DHT22;10682;50.874;3.656;2022-10-22T02:55:08;15.30;99.90
21047;DHT22;10682;50.874;3.656;2022-10-22T02:57:35;15.30;99.90
21047;DHT22;10682;50.874;3.656;2022-10-22T03:00:04;15.40;99.90
21047;DHT22;10682;50.874;3.656;2022-10-22T03:02:39;15.40;99.90
21047;DHT22;10682;50.874;3.656;2022-10-22T03:05:06;15.40;99.90
21047;DHT22;10682;50.874;3.656;2022-10-22T03:07:34;15.40;99.90
21047;DHT22;10682;50.874;3.656;2022-10-22T03:10:01;15.40;99.90
21047;DHT22;10682;50.874;3.656;2022-10-22T03:12:28;15.40;99.90
21047;DHT22;10682;50.874;3.656;2022-10-22T03:14:55;15.40;99.90
21047;DHT22;10682;50.874;3.656;2022-10-22T03:17:22;15.50;99.90
21047;DHT22;10682;50.874;3.656;2022-10-22T03:19:49;15.50;99.90
21047;DHT22;10682;50.874;3.656;2022-10-22T03:22:22;15.50;99.90
21047;DHT22;10682;50.874;3.656;2022-10-22T03:24:53;15.50;99.90
21047;DHT22;10682;50.874;3.656;2022-10-22T03:27:24;15.40;99.90
21047;DHT22;10682;50.874;3.656;2022-10-22T03:29:54;15.40;99.90
21047;DHT22;10682;50.874;3.656;2022-10-22T03:32:22;15.40;99.90
21047;DHT22;10682;50.874;3.656;2022-10-22T03:34:49;15.30;99.90
21047;DHT22;10682;50.874;3.656;2022-10-22T03:37:16;15.30;99.90
21047;DHT22;10682;50.874;3.656;2022-10-22T03:39:43;15.30;99.90
21047;DHT22;10682;50.874;3.656;2022-10-22T03:42:10;15.30;99.90
21047;DHT22;10682;50.874;3.656;2022-10-22T03:44:39;15.30;99.90
21047;DHT22;10682;50.874;3.656;2022-10-22T03:47:06;15.20;99.90
21047;DHT22;10682;50.874;3.656;2022-10-22T03:49:33;15.20;99.90
21047;DHT22;10682;50.874;3.656;2022-10-22T03:52:12;15.20;99.90
21047;DHT22;10682;50.874;3.656;2022-10-22T03:54:39;15.20;99.90
21047;DHT22;10682;50.874;3.656;2022-10-22T03:57:08;15.10;99.90
21047;DHT22;10682;50.874;3.656;2022-10-22T03:59:38;15.10;99.90
21047;DHT22;10682;50.874;3.656;2022-10-22T04:02:11;15.10;99.90
21047;DHT22;10682;50.874;3.656;2022-10-22T04:04:39;15.00;99.90
21047;DHT22;10682;50.874;3.656;2022-10-22T04:07:06;15.00;99.90
21047;DHT22;10682;50.874;3.656;2022-10-22T04:09:34;15.00;99.90
21047;DHT22;10682;50.874;3.656;2022-10-22T04:12:01;15.00;99.90
21047;DHT22;10682;50.874;3.656;2022-10-22T04:14:31;15.00;99.90
21047;DHT22;10682;50.874;3.656;2022-10-22T04:16:58;15.00;99.90
21047;DHT22;10682;50.874;3.656;2022-10-22T04:19:25;15.00;99.90
21047;DHT22;10682;50.874;3.656;2022-10-22T04:21:52;15.00;99.90
21047;DHT22;10682;50.874;3.656;2022-10-22T04:24:19;15.00;99.90
21047;DHT22;10682;50.874;3.656;2022-10-22T04:26:46;15.00;99.90
21047;DHT22;10682;50.874;3.656;2022-10-22T04:29:13;15.00;99.90
21047;DHT22;10682;50.874;3.656;2022-10-22T04:31:42;15.10;99.90
21047;DHT22;10682;50.874;3.656;2022-10-22T04:34:09;15.10;99.90
21047;DHT22;10682;50.874;3.656;2022-10-22T04:36:36;15.10;99.90
21047;DHT22;10682;50.874;3.656;2022-10-22T04:39:04;15.10;99.90
21047;DHT22;10682;50.874;3.656;2022-10-22T04:41:34;15.10;99.90
21047;DHT22;10682;50.874;3.656;2022-10-22T04:44:02;15.10;99.90
21047;DHT22;10682;50.874;3.656;2022-10-22T04:46:32;15.10;99.90
21047;DHT22;10682;50.874;3.656;2022-10-22T04:49:00;15.10;99.90
21047;DHT22;10682;50.874;3.656;2022-10-22T04:51:30;15.10;99.90
21047;DHT22;10682;50.874;3.656;2022-10-22T04:53:57;15.10;99.90
21047;DHT22;10682;50.874;3.656;2022-10-22T04:56:29;15.00;99.90
21047;DHT22;10682;50.874;3.656;2022-10-22T04:59:02;15.00;99.90
21047;DHT22;10682;50.874;3.656;2022-10-22T05:01:32;15.00;99.90
21047;DHT22;10682;50.874;3.656;2022-10-22T05:04:12;15.00;99.90
21047;DHT22;10682;50.874;3.656;2022-10-22T05:06:40;15.00;99.90
21047;DHT22;10682;50.874;3.656;2022-10-22T05:09:12;15.10;99.90
21047;DHT22;10682;50.874;3.656;2022-10-22T05:11:43;15.10;99.90
21047;DHT22;10682;50.874;3.656;2022-10-22T05:14:16;15.20;99.90
21047;DHT22;10682;50.874;3.656;2022-10-22T05:16:47;15.10;99.90
21047;DHT22;10682;50.874;3.656;2022-10-22T05:19:18;15.10;99.90
21047;DHT22;10682;50.874;3.656;2022-10-22T05:21:50;15.10;99.90
21047;DHT22;10682;50.874;3.656;2022-10-22T05:24:18;15.20;99.90
21047;DHT22;10682;50.874;3.656;2022-10-22T05:26:49;15.20;99.90
21047;DHT22;10682;50.874;3.656;2022-10-22T05:29:16;15.20;99.90
21047;DHT22;10682;50.874;3.656;2022-10-22T05:31:44;15.30;99.90
21047;DHT22;10682;50.874;3.656;2022-10-22T05:34:11;15.30;99.90
21047;DHT22;10682;50.874;3.656;2022-10-22T05:36:38;15.30;99.90
21047;DHT22;10682;50.874;3.656;2022-10-22T05:39:05;15.30;99.90
21047;DHT22;10682;50.874;3.656;2022-10-22T05:41:33;15.30;99.90
21047;DHT22;10682;50.874;3.656;2022-10-22T05:44:01;15.30;99.90
21047;DHT22;10682;50.874;3.656;2022-10-22T05:46:32;15.30;99.90
21047;DHT22;10682;50.874;3.656;2022-10-22T05:49:06;15.30;99.90
21047;DHT22;10682;50.874;3.656;2022-10-22T05:51:35;15.30;99.90
21047;DHT22;10682;50.874;3.656;2022-10-22T05:54:05;15.30;99.90
21047;DHT22;10682;50.874;3.656;2022-10-22T05:56:33;15.30;99.90
21047;DHT22;10682;50.874;3.656;2022-10-22T05:59:01;15.30;99.90
21047;DHT22;10682;50.874;3.656;2022-10-22T06:01:33;15.40;99.90
21047;DHT22;10682;50.874;3.656;2022-10-22T06:04:03;15.40;99.90
21047;DHT22;10682;50.874;3.656;2022-10-22T06:09:22;15.40;99.90
21047;DHT22;10682;50.874;3.656;2022-10-22T06:11:52;15.30;99.90
21047;DHT22;10682;50.874;3.656;2022-10-22T06:14:21;15.30;99.90
21047;DHT22;10682;50.874;3.656;2022-10-22T06:16:49;15.30;99.90
21047;DHT22;10682;50.874;3.656;2022-10-22T06:19:18;15.30;99.90
21047;DHT22;10682;50.874;3.656;2022-10-22T06:21:46;15.30;99.90
21047;DHT22;10682;50.874;3.656;2022-10-22T06:24:14;15.30;99.90
21047;DHT22;10682;50.874;3.656;2022-10-22T06:26:41;15.30;99.90
21047;DHT22;10682;50.874;3.656;2022-10-22T06:29:08;15.30;99.90
21047;DHT22;10682;50.874;3.656;2022-10-22T06:31:35;15.30;99.90
21047;DHT22;10682;50.874;3.656;2022-10-22T06:34:09;15.30;99.90
21047;DHT22;10682;50.874;3.656;2022-10-22T06:36:37;15.30;99.90
21047;DHT22;10682;50.874;3.656;2022-10-22T06:39:04;15.30;99.90
21047;DHT22;10682;50.874;3.656;2022-10-22T06:41:32;15.30;99.90
21047;DHT22;10682;50.874;3.656;2022-10-22T06:43:59;15.20;99.90
21047;DHT22;10682;50.874;3.656;2022-10-22T06:46:26;15.20;99.90
21047;DHT22;10682;50.874;3.656;2022-10-22T06:48:57;15.20;99.90
21047;DHT22;10682;50.874;3.656;2022-10-22T06:51:26;15.10;99.90
21047;DHT22;10682;50.874;3.656;2022-10-22T06:53:54;15.10;99.90
21047;DHT22;10682;50.874;3.656;2022-10-22T06:56:23;15.10;99.90
21047;DHT22;10682;50.874;3.656;2022-10-22T06:58:54;15.10;99.90
21047;DHT22;10682;50.874;3.656;2022-10-22T07:01:24;15.10;99.90
21047;DHT22;10682;50.874;3.656;2022-10-22T07:03:55;15.10;99.90
21047;DHT22;10682;50.874;3.656;2022-10-22T07:06:24;15.10;99.90
21047;DHT22;10682;50.874;3.656;2022-10-22T07:08:57;15.20;99.90
21047;DHT22;10682;50.874;3.656;2022-10-22T07:11:31;15.10;99.90
21047;DHT22;10682;50.874;3.656;2022-10-22T07:14:06;15.20;99.90
21047;DHT22;10682;50.874;3.656;2022-10-22T07:16:33;15.10;99.90
21047;DHT22;10682;50.874;3.656;2022-10-22T07:19:01;15.20;99.90
21047;DHT22;10682;50.874;3.656;2022-10-22T07:21:30;15.10;99.90
21047;DHT22;10682;50.874;3.656;2022-10-22T07:23:57;15.10;99.90
21047;DHT22;10682;50.874;3.656;2022-10-22T07:26:25;15.10;99.90
21047;DHT22;10682;50.874;3.656;2022-10-22T07:28:56;15.20;99.90
21047;DHT22;10682;50.874;3.656;2022-10-22T07:31:23;15.30;99.90
21047;DHT22;10682;50.874;3.656;2022-10-22T07:33:50;15.40;99.90
21047;DHT22;10682;50.874;3.656;2022-10-22T07:36:18;15.50;99.90
21047;DHT22;10682;50.874;3.656;2022-10-22T07:38:47;15.60;99.90
21047;DHT22;10682;50.874;3.656;2022-10-22T07:41:16;15.70;99.90
21047;DHT22;10682;50.874;3.656;2022-10-22T07:43:43;15.70;99.90
21047;DHT22;10682;50.874;3.656;2022-10-22T07:46:11;15.70;99.90
21047;DHT22;10682;50.874;3.656;2022-10-22T07:48:38;15.70;99.90
21047;DHT22;10682;50.874;3.656;2022-10-22T07:51:05;15.70;99.90
21047;DHT22;10682;50.874;3.656;2022-10-22T07:53:33;15.90;99.90
21047;DHT22;10682;50.874;3.656;2022-10-22T07:56:00;16.30;99.90
21047;DHT22;10682;50.874;3.656;2022-10-22T07:58:27;16.60;99.90
21047;DHT22;10682;50.874;3.656;2022-10-22T08:00:56;16.90;99.90
21047;DHT22;10682;50.874;3.656;2022-10-22T08:03:26;17.60;99.90
21047;DHT22;10682;50.874;3.656;2022-10-22T08:05:54;18.50;99.90
21047;DHT22;10682;50.874;3.656;2022-10-22T08:08:22;18.80;99.90
21047;DHT22;10682;50.874;3.656;2022-10-22T08:10:56;19.00;99.90
21047;DHT22;10682;50.874;3.656;2022-10-22T08:13:24;19.30;99.90
21047;DHT22;10682;50.874;3.656;2022-10-22T08:15:53;19.20;99.90
21047;DHT22;10682;50.874;3.656;2022-10-22T08:18:23;19.50;99.90
21047;DHT22;10682;50.874;3.656;2022-10-22T08:20:50;19.10;99.90
21047;DHT22;10682;50.874;3.656;2022-10-22T08:23:18;18.70;99.90
21047;DHT22;10682;50.874;3.656;2022-10-22T08:25:54;18.90;99.90
21047;DHT22;10682;50.874;3.656;2022-10-22T08:28:22;19.50;99.90
21047;DHT22;10682;50.874;3.656;2022-10-22T08:30:49;19.70;99.90
21047;DHT22;10682;50.874;3.656;2022-10-22T08:33:16;19.80;99.90
21047;DHT22;10682;50.874;3.656;2022-10-22T08:35:49;20.40;99.90
21047;DHT22;10682;50.874;3.656;2022-10-22T08:38:17;20.30;99.90
21047;DHT22;10682;50.874;3.656;2022-10-22T08:40:59;20.30;99.90
21047;DHT22;10682;50.874;3.656;2022-10-22T08:46:10;19.50;99.90
21047;DHT22;10682;50.874;3.656;2022-10-22T08:48:48;19.60;99.90
21047;DHT22;10682;50.874;3.656;2022-10-22T08:51:23;19.10;99.90
21047;DHT22;10682;50.874;3.656;2022-10-22T09:00:44;18.00;99.90
21047;DHT22;10682;50.874;3.656;2022-10-22T09:06:07;17.90;99.90
21047;DHT22;10682;50.874;3.656;2022-10-22T09:08:38;17.70;99.90
21047;DHT22;10682;50.874;3.656;2022-10-22T09:11:18;17.40;99.90
21047;DHT22;10682;50.874;3.656;2022-10-22T09:13:50;17.20;99.90
21047;DHT22;10682;50.874;3.656;2022-10-22T09:16:41;17.60;99.90
21047;DHT22;10682;50.874;3.656;2022-10-22T09:19:31;18.00;99.90
21047;DHT22;10682;50.874;3.656;2022-10-22T09:28:03;19.10;99.90
21047;DHT22;10682;50.874;3.656;2022-10-22T09:30:35;18.90;99.90
21047;DHT22;10682;50.874;3.656;2022-10-22T09:35:47;19.00;99.90
21047;DHT22;10682;50.874;3.656;2022-10-22T09:38:20;18.70;99.90
21047;DHT22;10682;50.874;3.656;2022-10-22T09:40:53;18.70;99.90
21047;DHT22;10682;50.874;3.656;2022-10-22T09:43:21;18.50;99.90
21047;DHT22;10682;50.874;3.656;2022-10-22T09:45:55;18.50;99.90
21047;DHT22;10682;50.874;3.656;2022-10-22T09:48:46;18.60;99.90
21047;DHT22;10682;50.874;3.656;2022-10-22T09:51:21;18.60;99.90
21047;DHT22;10682;50.874;3.656;2022-10-22T09:53:58;18.70;99.90
21047;DHT22;10682;50.874;3.656;2022-10-22T09:56:39;18.40;99.90
21047;DHT22;10682;50.874;3.656;2022-10-22T09:59:16;18.40;99.90
21047;DHT22;10682;50.874;3.656;2022-10-22T10:01:44;18.30;99.90
21047;DHT22;10682;50.874;3.656;2022-10-22T10:04:13;18.30;99.90
21047;DHT22;10682;50.874;3.656;2022-10-22T10:06:43;18.50;99.90
21047;DHT22;10682;50.874;3.656;2022-10-22T10:09:18;18.70;99.90
21047;DHT22;10682;50.874;3.656;2022-10-22T10:27:04;19.00;99.90
21047;DHT22;10682;50.874;3.656;2022-10-22T10:30:00;18.70;99.90
21047;DHT22;10682;50.874;3.656;2022-10-22T10:35:50;18.80;99.90
21047;DHT22;10682;50.874;3.656;2022-10-22T10:38:59;19.00;99.90
21047;DHT22;10682;50.874;3.656;2022-10-22T10:50:49;18.80;99.90
21047;DHT22;10682;50.874;3.656;2022-10-22T10:56:38;19.40;99.90
21047;DHT22;10682;50.874;3.656;2022-10-22T11:05:06;19.70;99.90
21047;DHT22;10682;50.874;3.656;2022-10-22T11:08:01;19.50;99.90
21047;DHT22;10682;50.874;3.656;2022-10-22T11:10:52;19.50;99.90
21047;DHT22;10682;50.874;3.656;2022-10-22T11:16:34;19.90;99.90
21047;DHT22;10682;50.874;3.656;2022-10-22T11:19:22;20.00;99.90
21047;DHT22;10682;50.874;3.656;2022-10-22T11:22:18;20.40;99.90
21047;DHT22;10682;50.874;3.656;2022-10-22T11:25:05;20.70;99.90
21047;DHT22;10682;50.874;3.656;2022-10-22T11:27:51;20.70;99.90
21047;DHT22;10682;50.874;3.656;2022-10-22T11:30:37;20.50;99.90
21047;DHT22;10682;50.874;3.656;2022-10-22T11:33:11;20.60;99.90
21047;DHT22;10682;50.874;3.656;2022-10-22T11:35:43;20.60;99.90
21047;DHT22;10682;50.874;3.656;2022-10-22T11:38:22;20.50;99.90
21047;DHT22;10682;50.874;3.656;2022-10-22T11:41:04;20.50;99.90
21047;DHT22;10682;50.874;3.656;2022-10-22T11:43:34;20.50;99.90
21047;DHT22;10682;50.874;3.656;2022-10-22T11:49:18;20.00;99.90
21047;DHT22;10682;50.874;3.656;2022-10-22T11:51:48;19.90;99.90
21047;DHT22;10682;50.874;3.656;2022-10-22T11:59:48;20.30;99.90
21047;DHT22;10682;50.874;3.656;2022-10-22T12:02:42;20.50;99.90
21047;DHT22;10682;50.874;3.656;2022-10-22T12:08:01;20.90;99.90
21047;DHT22;10682;50.874;3.656;2022-10-22T12:10:49;21.00;99.90
21047;DHT22;10682;50.874;3.656;2022-10-22T12:13:32;21.10;99.90
21047;DHT22;10682;50.874;3.656;2022-10-22T12:16:26;21.10;99.90
21047;DHT22;10682;50.874;3.656;2022-10-22T12:22:07;21.10;99.90
21047;DHT22;10682;50.874;3.656;2022-10-22T12:24:51;21.00;99.90
21047;DHT22;10682;50.874;3.656;2022-10-22T12:27:31;21.10;99.90
21047;DHT22;10682;50.874;3.656;2022-10-22T12:30:02;21.10;99.90
21047;DHT22;10682;50.874;3.656;2022-10-22T12:32:42;21.20;99.90
21047;DHT22;10682;50.874;3.656;2022-10-22T12:35:19;21.00;99.90
21047;DHT22;10682;50.874;3.656;2022-10-22T12:37:53;20.90;99.90
21047;DHT22;10682;50.874;3.656;2022-10-22T12:40:24;20.90;99.90
21047;DHT22;10682;50.874;3.656;2022-10-22T12:43:00;21.00;99.90
21047;DHT22;10682;50.874;3.656;2022-10-22T12:45:30;21.00;99.90
21047;DHT22;10682;50.874;3.656;2022-10-22T12:48:02;21.10;99.90
21047;DHT22;10682;50.874;3.656;2022-10-22T12:50:36;21.20;99.90
21047;DHT22;10682;50.874;3.656;2022-10-22T12:53:33;21.10;99.90
21047;DHT22;10682;50.874;3.656;2022-10-22T12:56:05;20.90;99.90
21047;DHT22;10682;50.874;3.656;2022-10-22T12:58:47;20.80;99.90
21047;DHT22;10682;50.874;3.656;2022-10-22T13:01:17;20.80;99.90
21047;DHT22;10682;50.874;3.656;2022-10-22T13:03:50;20.80;99.90
21047;DHT22;10682;50.874;3.656;2022-10-22T13:06:28;20.80;99.90
21047;DHT22;10682;50.874;3.656;2022-10-22T13:11:52;21.10;99.90
21047;DHT22;10682;50.874;3.656;2022-10-22T13:14:25;21.30;99.90
21047;DHT22;10682;50.874;3.656;2022-10-22T13:27:58;20.50;99.90
21047;DHT22;10682;50.874;3.656;2022-10-22T13:30:32;20.10;99.90
21047;DHT22;10682;50.874;3.656;2022-10-22T13:33:02;19.90;99.90
21047;DHT22;10682;50.874;3.656;2022-10-22T13:35:33;19.80;99.90
21047;DHT22;10682;50.874;3.656;2022-10-22T13:38:04;19.80;99.90
21047;DHT22;10682;50.874;3.656;2022-10-22T13:40:44;19.80;99.90
21047;DHT22;10682;50.874;3.656;2022-10-22T13:43:11;20.00;99.90
21047;DHT22;10682;50.874;3.656;2022-10-22T13:45:38;20.20;99.90
21047;DHT22;10682;50.874;3.656;2022-10-22T13:48:11;20.20;99.90
21047;DHT22;10682;50.874;3.656;2022-10-22T13:50:40;20.30;99.90
21047;DHT22;10682;50.874;3.656;2022-10-22T13:53:16;20.30;99.90
21047;DHT22;10682;50.874;3.656;2022-10-22T13:55:45;20.10;99.90
21047;DHT22;10682;50.874;3.656;2022-10-22T13:58:15;20.00;99.90
21047;DHT22;10682;50.874;3.656;2022-10-22T14:00:53;20.00;99.90
21047;DHT22;10682;50.874;3.656;2022-10-22T14:03:26;19.90;99.90
21047;DHT22;10682;50.874;3.656;2022-10-22T14:05:55;19.80;99.90
21047;DHT22;10682;50.874;3.656;2022-10-22T14:08:23;19.60;99.90
21047;DHT22;10682;50.874;3.656;2022-10-22T14:10:52;19.60;99.90
21047;DHT22;10682;50.874;3.656;2022-10-22T14:13:20;19.60;99.90
21047;DHT22;10682;50.874;3.656;2022-10-22T14:15:49;19.60;99.90
21047;DHT22;10682;50.874;3.656;2022-10-22T14:18:25;19.60;99.90
21047;DHT22;10682;50.874;3.656;2022-10-22T14:20:57;19.70;99.90
21047;DHT22;10682;50.874;3.656;2022-10-22T14:23:29;19.60;99.90
21047;DHT22;10682;50.874;3.656;2022-10-22T14:25:58;19.50;99.90
21047;DHT22;10682;50.874;3.656;2022-10-22T14:28:25;19.50;99.90
21047;DHT22;10682;50.874;3.656;2022-10-22T14:30:53;19.50;99.90
21047;DHT22;10682;50.874;3.656;2022-10-22T14:33:23;19.50;99.90
21047;DHT22;10682;50.874;3.656;2022-10-22T14:35:58;19.60;99.90
21047;DHT22;10682;50.874;3.656;2022-10-22T14:38:26;19.60;99.90
21047;DHT22;10682;50.874;3.656;2022-10-22T14:40:54;19.50;99.90
21047;DHT22;10682;50.874;3.656;2022-10-22T14:43:25;19.40;99.90
21047;DHT22;10682;50.874;3.656;2022-10-22T14:45:53;19.30;99.90
21047;DHT22;10682;50.874;3.656;2022-10-22T14:48:20;19.30;99.90
21047;DHT22;10682;50.874;3.656;2022-10-22T14:50:47;19.20;99.90
21047;DHT22;10682;50.874;3.656;2022-10-22T14:53:15;19.20;99.90
21047;DHT22;10682;50.874;3.656;2022-10-22T14:55:43;19.10;99.90
21047;DHT22;10682;50.874;3.656;2022-10-22T14:58:13;19.00;99.90
21047;DHT22;10682;50.874;3.656;2022-10-22T15:00:41;19.00;99.90
21047;DHT22;10682;50.874;3.656;2022-10-22T15:03:09;19.00;99.90
21047;DHT22;10682;50.874;3.656;2022-10-22T15:05:41;19.00;99.90
21047;DHT22;10682;50.874;3.656;2022-10-22T15:08:11;19.00;99.90
21047;DHT22;10682;50.874;3.656;2022-10-22T15:10:41;19.00;99.90
21047;DHT22;10682;50.874;3.656;2022-10-22T15:13:08;19.00;99.90
21047;DHT22;10682;50.874;3.656;2022-10-22T15:15:38;19.00;99.90
21047;DHT22;10682;50.874;3.656;2022-10-22T15:18:06;18.90;99.90
21047;DHT22;10682;50.874;3.656;2022-10-22T15:20:33;18.90;99.90
21047;DHT22;10682;50.874;3.656;2022-10-22T15:23:00;18.90;99.90
21047;DHT22;10682;50.874;3.656;2022-10-22T15:25:27;18.90;99.90
21047;DHT22;10682;50.874;3.656;2022-10-22T15:27:54;18.90;99.90
21047;DHT22;10682;50.874;3.656;2022-10-22T15:30:27;18.90;99.90
21047;DHT22;10682;50.874;3.656;2022-10-22T15:32:54;18.90;99.90
21047;DHT22;10682;50.874;3.656;2022-10-22T15:35:21;18.80;99.90
21047;DHT22;10682;50.874;3.656;2022-10-22T15:37:50;18.90;99.90
21047;DHT22;10682;50.874;3.656;2022-10-22T15:40:17;18.90;99.90
21047;DHT22;10682;50.874;3.656;2022-10-22T15:42:44;18.90;99.90
21047;DHT22;10682;50.874;3.656;2022-10-22T15:45:12;18.80;99.90
21047;DHT22;10682;50.874;3.656;2022-10-22T15:47:39;18.80;99.90
21047;DHT22;10682;50.874;3.656;2022-10-22T15:50:07;18.70;99.90
21047;DHT22;10682;50.874;3.656;2022-10-22T15:52:34;18.60;99.90
21047;DHT22;10682;50.874;3.656;2022-10-22T15:55:01;18.50;99.90
21047;DHT22;10682;50.874;3.656;2022-10-22T15:57:32;18.40;99.90
21047;DHT22;10682;50.874;3.656;2022-10-22T15:59:59;18.40;99.90
21047;DHT22;10682;50.874;3.656;2022-10-22T16:02:26;18.40;99.90
21047;DHT22;10682;50.874;3.656;2022-10-22T16:04:53;18.30;99.90
21047;DHT22;10682;50.874;3.656;2022-10-22T16:07:20;18.30;99.90
21047;DHT22;10682;50.874;3.656;2022-10-22T16:09:53;18.20;99.90
21047;DHT22;10682;50.874;3.656;2022-10-22T16:12:24;18.10;99.90
21047;DHT22;10682;50.874;3.656;2022-10-22T16:14:51;18.00;99.90
21047;DHT22;10682;50.874;3.656;2022-10-22T16:17:18;17.90;99.90
21047;DHT22;10682;50.874;3.656;2022-10-22T16:19:46;17.70;99.90
21047;DHT22;10682;50.874;3.656;2022-10-22T16:22:13;17.60;99.90
21047;DHT22;10682;50.874;3.656;2022-10-22T16:24:41;17.50;99.90
21047;DHT22;10682;50.874;3.656;2022-10-22T16:27:08;17.40;99.90
21047;DHT22;10682;50.874;3.656;2022-10-22T16:29:36;17.30;99.90
21047;DHT22;10682;50.874;3.656;2022-10-22T16:32:04;17.20;99.90
21047;DHT22;10682;50.874;3.656;2022-10-22T16:34:32;17.10;99.90
21047;DHT22;10682;50.874;3.656;2022-10-22T16:36:59;17.00;99.90
21047;DHT22;10682;50.874;3.656;2022-10-22T16:39:26;16.90;99.90
21047;DHT22;10682;50.874;3.656;2022-10-22T16:41:53;16.80;99.90
21047;DHT22;10682;50.874;3.656;2022-10-22T16:44:20;16.70;99.90
21047;DHT22;10682;50.874;3.656;2022-10-22T16:46:47;16.60;99.90
21047;DHT22;10682;50.874;3.656;2022-10-22T16:49:14;16.50;99.90
21047;DHT22;10682;50.874;3.656;2022-10-22T16:51:41;16.40;99.90
21047;DHT22;10682;50.874;3.656;2022-10-22T16:54:11;16.30;99.90
21047;DHT22;10682;50.874;3.656;2022-10-22T16:56:39;16.20;99.90
21047;DHT22;10682;50.874;3.656;2022-10-22T16:59:06;16.10;99.90
21047;DHT22;10682;50.874;3.656;2022-10-22T17:01:33;16.10;99.90
21047;DHT22;10682;50.874;3.656;2022-10-22T17:04:06;16.00;99.90
21047;DHT22;10682;50.874;3.656;2022-10-22T17:06:34;15.90;99.90
21047;DHT22;10682;50.874;3.656;2022-10-22T17:09:01;15.70;99.90
21047;DHT22;10682;50.874;3.656;2022-10-22T17:11:29;15.60;99.90
21047;DHT22;10682;50.874;3.656;2022-10-22T17:14:01;15.50;99.90
21047;DHT22;10682;50.874;3.656;2022-10-22T17:16:29;15.30;99.90
21047;DHT22;10682;50.874;3.656;2022-10-22T17:18:56;15.10;99.90
21047;DHT22;10682;50.874;3.656;2022-10-22T17:21:24;15.00;99.90
21047;DHT22;10682;50.874;3.656;2022-10-22T17:23:55;14.90;99.90
21047;DHT22;10682;50.874;3.656;2022-10-22T17:26:24;14.80;99.90
21047;DHT22;10682;50.874;3.656;2022-10-22T17:28:53;14.70;99.90
21047;DHT22;10682;50.874;3.656;2022-10-22T17:31:23;14.70;99.90
21047;DHT22;10682;50.874;3.656;2022-10-22T17:33:53;14.60;99.90
21047;DHT22;10682;50.874;3.656;2022-10-22T17:36:22;14.60;99.90
21047;DHT22;10682;50.874;3.656;2022-10-22T17:38:55;14.60;99.90
21047;DHT22;10682;50.874;3.656;2022-10-22T17:41:27;14.60;99.90
21047;DHT22;10682;50.874;3.656;2022-10-22T17:43:57;14.50;99.90
21047;DHT22;10682;50.874;3.656;2022-10-22T17:46:29;14.50;99.90
21047;DHT22;10682;50.874;3.656;2022-10-22T17:48:58;14.50;99.90
21047;DHT22;10682;50.874;3.656;2022-10-22T17:51:31;14.40;99.90
21047;DHT22;10682;50.874;3.656;2022-10-22T17:53:58;14.30;99.90
21047;DHT22;10682;50.874;3.656;2022-10-22T17:56:28;14.30;99.90
21047;DHT22;10682;50.874;3.656;2022-10-22T17:58:56;14.20;99.90